createdAt,value
2022-11-26T00:00:43.311Z,98861.00
2022-11-26T00:04:45.405Z,98861.78
2022-11-26T00:08:47.685Z,98866.22
2022-11-26T00:12:49.941Z,98866.31
2022-11-26T00:16:52.033Z,98862.03
2022-11-26T00:20:57.051Z,98869.06
2022-11-26T00:24:59.216Z,98885.69
2022-11-26T00:29:01.377Z,98889.22
2022-11-26T00:33:03.376Z,98895.44
2022-11-26T00:37:05.389Z,98895.56
2022-11-26T00:41:16.970Z,98903.47
2022-11-26T00:45:22.393Z,98909.59
2022-11-26T00:49:24.404Z,98908.84
2022-11-26T00:53:26.793Z,98904.56
2022-11-26T00:57:29.044Z,98919.38
2022-11-26T01:01:32.790Z,98920.28
2022-11-26T01:05:35.599Z,98926.44
2022-11-26T01:09:38.818Z,98926.44
2022-11-26T01:13:42.499Z,98929.91
2022-11-26T01:17:44.691Z,98938.63
2022-11-26T01:21:46.712Z,98940.47
2022-11-26T01:25:48.807Z,98943.94
2022-11-26T01:29:50.838Z,98946.59
2022-11-26T01:33:53.423Z,98960.53
2022-11-26T01:37:55.877Z,98959.66
2022-11-26T01:42:22.004Z,98958.84
2022-11-26T01:46:26.354Z,98964.09
2022-11-26T01:50:31.335Z,98979.75
2022-11-26T01:54:36.722Z,98979.78
2022-11-26T01:58:53.999Z,98991.94
2022-11-26T02:02:56.472Z,98996.25
2022-11-26T02:06:59.438Z,99007.44
2022-11-26T02:11:20.152Z,99004.69
2022-11-26T02:15:26.143Z,99009.78
2022-11-26T02:19:55.988Z,99021.94
2022-11-26T02:24:26.132Z,99021.06
2022-11-26T02:28:50.132Z,99030.66
2022-11-26T02:33:02.509Z,99035.03
2022-11-26T02:37:12.871Z,99036.00
2022-11-26T02:41:14.887Z,99033.44
2022-11-26T02:45:28.373Z,99039.59
2022-11-26T02:49:31.992Z,99042.16
2022-11-26T02:53:35.433Z,99047.31
2022-11-26T02:57:48.376Z,99042.16
2022-11-26T03:02:11.512Z,99047.34
2022-11-26T03:06:15.045Z,99046.53
2022-11-26T03:10:20.337Z,99050.91
2022-11-26T03:14:22.460Z,99048.38
2022-11-26T03:18:24.774Z,99057.09
2022-11-26T03:22:26.843Z,99074.50
2022-11-26T03:26:28.837Z,99073.59
2022-11-26T03:30:30.909Z,99072.69
2022-11-26T03:34:33.104Z,99071.84
2022-11-26T03:38:35.330Z,99068.41
2022-11-26T03:42:37.335Z,99071.03
2022-11-26T03:46:40.050Z,99069.28
2022-11-26T03:50:42.182Z,99065.84
2022-11-26T03:54:44.193Z,99053.75
2022-11-26T03:58:46.212Z,99064.19
2022-11-26T04:02:48.248Z,99056.44
2022-11-26T04:06:50.418Z,99059.94
2022-11-26T04:10:52.418Z,99067.75
2022-11-26T04:14:54.454Z,99071.25
2022-11-26T04:18:56.493Z,99066.06
2022-11-26T04:22:58.480Z,99066.09
2022-11-26T04:27:00.490Z,99071.34
2022-11-26T04:31:02.567Z,99055.84
2022-11-26T04:35:04.996Z,99069.72
2022-11-26T04:39:07.071Z,99069.72
2022-11-26T04:43:09.098Z,99083.63
2022-11-26T04:47:11.102Z,99082.78
2022-11-26T04:51:13.118Z,99092.34
2022-11-26T04:55:16.724Z,99098.41
2022-11-26T04:59:18.738Z,99110.53
2022-11-26T05:03:20.804Z,99115.72
2022-11-26T05:07:22.887Z,99118.31
2022-11-26T05:11:25.054Z,99131.28
2022-11-26T05:15:27.127Z,99132.16
2022-11-26T05:19:29.182Z,99134.72
2022-11-26T05:23:31.221Z,99139.06
2022-11-26T05:27:33.525Z,99151.13
2022-11-26T05:31:35.561Z,99149.41
2022-11-26T05:35:38.172Z,99146.75
2022-11-26T05:39:40.730Z,99155.31
2022-11-26T05:43:42.801Z,99163.94
2022-11-26T05:47:44.852Z,99159.63
2022-11-26T05:51:46.833Z,99163.06
2022-11-26T05:55:48.841Z,99170.84
2022-11-26T05:59:50.827Z,99173.41
2022-11-26T06:03:52.929Z,99176.75
2022-11-26T06:07:55.201Z,99181.06
2022-11-26T06:11:57.350Z,99191.41
2022-11-26T06:15:59.650Z,99205.06
2022-11-26T06:20:01.749Z,99201.50
2022-11-26T06:24:04.070Z,99207.47
2022-11-26T06:28:06.109Z,99205.72
2022-11-26T06:32:08.179Z,99214.38
2022-11-26T06:36:10.665Z,99223.84
2022-11-26T06:40:17.700Z,99234.28
2022-11-26T06:44:19.617Z,99244.63
2022-11-26T06:48:25.464Z,99246.38
2022-11-26T06:52:27.482Z,99266.38
2022-11-26T06:56:29.498Z,99261.38
2022-11-26T07:00:31.531Z,99265.81
2022-11-26T07:04:33.528Z,99262.41
2022-11-26T07:08:35.546Z,99270.25
2022-11-26T07:12:37.561Z,99275.56
2022-11-26T07:16:39.602Z,99278.22
2022-11-26T07:20:41.702Z,99282.63
2022-11-26T07:24:43.713Z,99286.13
2022-11-26T07:28:47.254Z,99281.81
2022-11-26T07:32:49.363Z,99293.13
2022-11-26T07:36:55.323Z,99292.28
2022-11-26T07:41:13.410Z,99301.81
2022-11-26T07:45:15.644Z,99307.03
2022-11-26T07:49:17.685Z,99305.31
2022-11-26T07:53:19.739Z,99309.66
2022-11-26T07:57:22.910Z,99299.25
2022-11-26T08:01:29.896Z,99303.59
2022-11-26T08:05:32.007Z,99304.44
2022-11-26T08:09:34.160Z,99313.97
2022-11-26T08:13:36.183Z,99319.16
2022-11-26T08:17:38.202Z,99312.22
2022-11-26T08:21:40.821Z,99311.38
2022-11-26T08:26:06.027Z,99314.84
2022-11-26T08:30:06.176Z,99320.91
2022-11-26T08:34:08.330Z,99320.09
2022-11-26T08:38:10.355Z,99309.63
2022-11-26T08:42:12.664Z,99303.47
2022-11-26T08:46:14.798Z,99308.63
2022-11-26T08:50:17.061Z,99306.00
2022-11-26T08:54:19.184Z,99303.38
2022-11-26T08:58:21.263Z,99305.94
2022-11-26T09:02:23.347Z,99315.41
2022-11-26T09:06:27.709Z,99325.75
2022-11-26T09:10:29.867Z,99340.44
2022-11-26T09:14:40.111Z,99350.78
2022-11-26T09:18:42.609Z,99348.13
2022-11-26T09:22:44.617Z,99352.38
2022-11-26T09:26:48.303Z,99358.38
2022-11-26T09:30:50.360Z,99359.13
2022-11-26T09:34:52.702Z,99356.34
2022-11-26T09:38:55.972Z,99357.19
2022-11-26T09:43:32.332Z,99347.50
2022-11-26T09:47:41.559Z,99344.81
2022-11-26T09:51:46.735Z,99348.25
2022-11-26T09:55:51.813Z,99339.50
2022-11-26T09:59:55.813Z,99344.78
2022-11-26T10:03:58.846Z,99337.75
2022-11-26T10:08:14.411Z,99337.66
2022-11-26T10:12:50.308Z,99340.06
2022-11-26T10:17:21.938Z,99339.97
2022-11-26T10:21:57.180Z,99338.09
2022-11-26T10:25:55.250Z,99336.22
2022-11-26T10:30:01.520Z,99341.44
2022-11-26T10:34:12.597Z,99346.63
2022-11-26T10:38:14.639Z,99335.19
2022-11-26T10:42:19.608Z,99333.38
2022-11-26T10:46:35.926Z,99330.66
2022-11-26T10:50:47.878Z,99331.47
2022-11-26T10:55:07.716Z,99334.91
2022-11-26T10:59:18.568Z,99330.44
2022-11-26T11:04:06.097Z,99316.22
2022-11-26T11:07:55.203Z,99314.25
2022-11-26T11:12:19.825Z,99316.63
2022-11-26T11:16:31.108Z,99320.81
2022-11-26T11:20:37.015Z,99322.47
2022-11-26T11:24:44.983Z,99320.75
2022-11-26T11:28:53.078Z,99312.94
2022-11-26T11:32:57.182Z,99318.22
2022-11-26T11:37:00.841Z,99319.19
2022-11-26T11:41:10.763Z,99321.16
2022-11-26T11:45:38.998Z,99321.16
2022-11-26T11:50:02.498Z,99309.84
2022-11-26T11:54:18.641Z,99312.38
2022-11-26T11:58:32.887Z,99305.53
2022-11-26T12:03:14.053Z,99304.69
2022-11-26T12:07:29.498Z,99305.53
2022-11-26T12:11:34.558Z,99302.13
2022-11-26T12:15:53.743Z,99300.44
2022-11-26T12:20:14.778Z,99312.66
2022-11-26T12:24:36.737Z,99319.63
2022-11-26T12:28:51.324Z,99310.84
2022-11-26T12:33:07.355Z,99311.00
2022-11-26T12:37:19.989Z,99313.63
2022-11-26T12:41:28.720Z,99314.56
2022-11-26T12:46:00.440Z,99317.91
2022-11-26T12:50:35.214Z,99323.91
2022-11-26T12:55:12.463Z,99330.84
2022-11-26T12:59:37.322Z,99326.47
2022-11-26T13:03:40.768Z,99327.41
2022-11-26T13:07:49.017Z,99329.09
2022-11-26T13:12:04.506Z,99336.00
2022-11-26T13:16:26.542Z,99336.91
2022-11-26T13:20:47.661Z,99339.63
2022-11-26T13:25:27.331Z,99339.03
2022-11-26T13:29:50.810Z,99348.19
2022-11-26T13:33:55.772Z,99340.53
2022-11-26T13:38:19.733Z,99333.72
2022-11-26T13:42:36.426Z,99336.56
2022-11-26T13:47:01.116Z,99333.34
2022-11-26T13:51:33.099Z,99332.81
2022-11-26T13:55:44.264Z,99344.22
2022-11-26T13:59:47.971Z,99352.88
2022-11-26T14:03:50.449Z,99345.06
2022-11-26T14:08:31.100Z,99347.69
2022-11-26T14:13:04.323Z,99342.41
2022-11-26T14:17:18.399Z,99344.03
2022-11-26T14:21:21.460Z,99344.03
2022-11-26T14:25:38.946Z,99354.56
2022-11-26T14:29:41.055Z,99359.88
2022-11-26T14:33:45.207Z,99355.56
2022-11-26T14:37:53.264Z,99356.53
2022-11-26T14:42:03.770Z,99356.59
2022-11-26T14:46:17.287Z,99363.59
2022-11-26T14:50:23.439Z,99356.66
2022-11-26T14:54:31.602Z,99354.00
2022-11-26T14:58:41.997Z,99349.72
2022-11-26T15:02:48.258Z,99340.34
2022-11-26T15:06:50.930Z,99336.19
2022-11-26T15:11:07.452Z,99340.63
2022-11-26T15:15:15.786Z,99329.41
2022-11-26T15:19:20.086Z,99326.84
2022-11-26T15:23:30.951Z,99329.41
2022-11-26T15:27:47.881Z,99325.91
2022-11-26T15:31:49.854Z,99322.38
2022-11-26T15:35:57.304Z,99320.56
2022-11-26T15:40:18.939Z,99321.31
2022-11-26T15:44:25.020Z,99321.34
2022-11-26T15:48:52.085Z,99319.56
2022-11-26T15:52:59.457Z,99335.16
2022-11-26T15:57:17.893Z,99338.56
2022-11-26T16:01:24.430Z,99335.97
2022-11-26T16:05:34.552Z,99345.41
2022-11-26T16:09:36.672Z,99334.09
2022-11-26T16:13:38.671Z,99336.63
2022-11-26T16:17:40.713Z,99338.31
2022-11-26T16:21:49.408Z,99330.50
2022-11-26T16:26:10.306Z,99329.63
2022-11-26T16:30:16.012Z,99326.97
2022-11-26T16:34:18.263Z,99330.50
2022-11-26T16:38:23.211Z,99327.06
2022-11-26T16:42:25.268Z,99334.91
2022-11-26T16:46:27.977Z,99328.00
2022-11-26T16:50:30.221Z,99341.06
2022-11-26T16:54:32.240Z,99335.00
2022-11-26T16:58:36.405Z,99332.41
2022-11-26T17:02:38.475Z,99346.31
2022-11-26T17:06:41.547Z,99340.25
2022-11-26T17:10:44.066Z,99340.28
2022-11-26T17:14:46.973Z,99337.66
2022-11-26T17:18:49.937Z,99334.19
2022-11-26T17:22:52.026Z,99322.91
2022-11-26T17:26:54.935Z,99313.38
2022-11-26T17:30:57.092Z,99318.59
2022-11-26T17:34:59.149Z,99319.50
2022-11-26T17:39:01.170Z,99327.34
2022-11-26T17:43:03.170Z,99318.66
2022-11-26T17:47:17.964Z,99327.34
2022-11-26T17:51:20.384Z,99329.94
2022-11-26T17:55:24.339Z,99338.63
2022-11-26T17:59:26.367Z,99342.09
2022-11-26T18:03:28.363Z,99347.31
2022-11-26T18:07:30.444Z,99342.97
2022-11-26T18:11:49.952Z,99342.09
2022-11-26T18:16:00.340Z,99354.28
2022-11-26T18:20:02.415Z,99351.69
2022-11-26T18:24:05.616Z,99345.59
2022-11-26T18:28:07.636Z,99336.06
2022-11-26T18:32:09.665Z,99334.34
2022-11-26T18:36:11.955Z,99332.63
2022-11-26T18:40:17.712Z,99334.38
2022-11-26T18:44:19.753Z,99331.75
2022-11-26T18:48:21.768Z,99325.69
2022-11-26T18:52:23.782Z,99327.44
2022-11-26T18:56:25.877Z,99316.19
2022-11-26T19:00:27.953Z,99329.19
2022-11-26T19:04:29.975Z,99330.94
2022-11-26T19:08:32.633Z,99317.09
2022-11-26T19:12:35.741Z,99320.56
2022-11-26T19:16:37.738Z,99313.56
2022-11-26T19:20:47.529Z,99303.13
2022-11-26T19:24:49.550Z,99289.25
2022-11-26T19:28:52.570Z,99279.72
2022-11-26T19:32:54.573Z,99282.34
2022-11-26T19:36:57.731Z,99284.09
2022-11-26T19:41:01.105Z,99288.44
2022-11-26T19:45:03.296Z,99297.16
2022-11-26T19:49:05.303Z,99305.00
2022-11-26T19:53:07.296Z,99303.28
2022-11-26T19:57:09.319Z,99301.56
2022-11-26T20:01:13.613Z,99294.59
2022-11-26T20:05:15.876Z,99291.13
2022-11-26T20:09:17.882Z,99286.78
2022-11-26T20:13:19.878Z,99284.19
2022-11-26T20:17:21.949Z,99286.78
2022-11-26T20:21:26.723Z,99294.59
2022-11-26T20:25:33.129Z,99300.69
2022-11-26T20:29:35.133Z,99293.75
2022-11-26T20:33:37.138Z,99293.78
2022-11-26T20:37:39.166Z,99295.59
2022-11-26T20:41:41.725Z,99296.44
2022-11-26T20:45:43.731Z,99287.78
2022-11-26T20:49:46.777Z,99290.41
2022-11-26T20:53:50.513Z,99289.53
2022-11-26T20:57:52.570Z,99292.13
2022-11-26T21:01:54.768Z,99305.13
2022-11-26T21:06:01.862Z,99309.41
2022-11-26T21:10:04.121Z,99325.03
2022-11-26T21:14:11.914Z,99325.00
2022-11-26T21:18:16.882Z,99315.47
2022-11-26T21:22:18.997Z,99315.44
2022-11-26T21:26:26.314Z,99310.22
2022-11-26T21:30:28.351Z,99310.22
2022-11-26T21:34:30.372Z,99316.31
2022-11-26T21:38:32.458Z,99309.38
2022-11-26T21:42:34.509Z,99307.63
2022-11-26T21:46:38.878Z,99311.84
2022-11-26T21:50:41.124Z,99304.88
2022-11-26T21:54:43.270Z,99296.19
2022-11-26T21:58:45.789Z,99292.75
2022-11-26T22:02:47.882Z,99292.75
2022-11-26T22:06:50.040Z,99275.41
2022-11-26T22:10:52.251Z,99269.34
2022-11-26T22:14:54.257Z,99278.06
2022-11-26T22:18:57.879Z,99275.44
2022-11-26T22:22:59.901Z,99285.88
2022-11-26T22:27:01.939Z,99284.19
2022-11-26T22:31:22.562Z,99285.03
2022-11-26T22:35:24.608Z,99287.59
2022-11-26T22:39:26.634Z,99284.94
2022-11-26T22:43:29.075Z,99271.91
2022-11-26T22:47:31.074Z,99272.81
2022-11-26T22:51:34.916Z,99271.06
2022-11-26T22:55:36.930Z,99256.34
2022-11-26T22:59:39.137Z,99241.59
2022-11-26T23:03:41.451Z,99241.63
2022-11-26T23:07:43.565Z,99226.94
2022-11-26T23:11:45.727Z,99223.50
2022-11-26T23:15:47.822Z,99200.94
2022-11-26T23:19:49.864Z,99190.59
2022-11-26T23:23:52.740Z,99201.91
2022-11-26T23:27:55.045Z,99196.75
2022-11-26T23:31:57.219Z,99193.31
2022-11-26T23:35:59.703Z,99195.06
2022-11-26T23:40:02.110Z,99196.84
2022-11-26T23:44:04.242Z,99190.81
2022-11-26T23:48:06.368Z,99191.66
2022-11-26T23:52:08.376Z,99182.94
2022-11-26T23:56:13.767Z,99182.94
